createdAt,value
2017-08-23T06:57:49.434Z,56.00
2017-08-23T06:58:49.392Z,56.00
2017-08-23T07:00:42.382Z,60.00
2017-08-23T07:01:42.349Z,60.00
2017-08-23T07:03:35.792Z,60.00
2017-08-23T07:04:35.817Z,64.00
2017-08-23T07:06:28.746Z,60.00
2017-08-23T07:07:28.727Z,60.00
2017-08-23T07:09:21.696Z,60.00
2017-08-23T07:10:21.668Z,60.00
2017-08-23T07:12:14.614Z,64.00
2017-08-23T07:13:14.601Z,64.00
2017-08-23T07:15:07.557Z,64.00
2017-08-23T07:16:07.561Z,64.00
2017-08-23T07:18:00.510Z,64.00
2017-08-23T07:19:00.474Z,68.00
2017-08-23T07:20:53.434Z,64.00
2017-08-23T07:21:53.421Z,64.00
2017-08-23T07:23:46.381Z,68.00
2017-08-23T07:24:46.361Z,64.00
2017-08-23T07:26:39.309Z,68.00
2017-08-23T07:27:39.300Z,64.00
2017-08-23T07:29:32.294Z,64.00
2017-08-23T07:30:33.173Z,68.00
2017-08-23T07:32:25.182Z,64.00
2017-08-23T07:33:25.167Z,64.00
2017-08-23T07:35:18.139Z,64.00
2017-08-23T07:36:18.125Z,64.00
2017-08-23T07:38:11.110Z,60.00
2017-08-23T07:39:11.074Z,68.00
2017-08-23T07:41:04.013Z,68.00
2017-08-23T07:42:04.007Z,68.00
2017-08-23T07:43:56.969Z,60.00
2017-08-23T07:44:56.959Z,64.00
2017-08-23T07:46:49.917Z,64.00
2017-08-23T07:47:49.914Z,68.00
2017-08-23T07:49:43.379Z,72.00
2017-08-23T07:50:43.358Z,72.00
2017-08-23T07:52:36.318Z,72.00
2017-08-23T07:53:36.295Z,72.00
2017-08-23T07:55:29.543Z,72.00
2017-08-23T07:56:29.231Z,72.00
2017-08-23T07:58:22.191Z,76.00
2017-08-23T07:59:22.179Z,72.00
2017-08-23T08:01:15.634Z,76.00
2017-08-23T08:02:15.619Z,76.00
2017-08-23T08:04:08.578Z,76.00
2017-08-23T08:05:08.578Z,80.00
2017-08-23T08:07:01.514Z,80.00
2017-08-23T08:08:01.508Z,84.00
2017-08-23T08:09:54.459Z,80.00
2017-08-23T08:10:54.450Z,80.00
2017-08-23T08:12:47.397Z,84.00
2017-08-23T08:13:47.382Z,84.00
2017-08-23T08:15:40.329Z,84.00
2017-08-23T08:16:40.329Z,84.00
2017-08-23T08:18:33.779Z,84.00
2017-08-23T08:19:33.784Z,84.00
2017-08-23T08:21:26.723Z,84.00
2017-08-23T08:22:26.709Z,84.00
2017-08-23T08:24:19.671Z,84.00
2017-08-23T08:25:19.660Z,88.00
2017-08-23T08:27:12.805Z,84.00
2017-08-23T08:28:12.598Z,84.00
2017-08-23T08:30:06.042Z,88.00
2017-08-23T08:31:06.023Z,84.00
2017-08-23T08:32:58.970Z,84.00
2017-08-23T08:33:58.962Z,84.00
2017-08-23T08:35:51.950Z,80.00
2017-08-23T08:36:51.940Z,84.00
2017-08-23T08:38:44.933Z,88.00
2017-08-23T08:39:44.870Z,88.00
2017-08-23T08:41:38.338Z,84.00
2017-08-23T08:42:38.318Z,84.00
2017-08-23T08:44:31.801Z,88.00
2017-08-23T08:45:31.777Z,88.00
2017-08-23T08:47:25.227Z,88.00
2017-08-23T08:48:25.215Z,88.00
2017-08-23T08:50:18.682Z,88.00
2017-08-23T08:51:18.669Z,88.00
2017-08-23T08:53:12.108Z,88.00
2017-08-23T08:54:12.103Z,88.00
2017-08-23T08:56:05.193Z,88.00
2017-08-23T08:57:05.041Z,88.00
2017-08-23T08:58:58.201Z,88.00
2017-08-23T08:59:57.991Z,88.00
2017-08-23T09:01:50.938Z,92.00
2017-08-23T09:02:50.929Z,88.00
2017-08-23T09:04:43.879Z,88.00
2017-08-23T09:05:43.863Z,88.00
2017-08-23T09:07:37.352Z,88.00
2017-08-23T09:08:37.355Z,88.00
2017-08-23T09:10:30.263Z,92.00
2017-08-23T09:11:30.258Z,92.00
2017-08-23T09:13:23.703Z,92.00
2017-08-23T09:14:23.692Z,92.00
2017-08-23T09:16:16.686Z,92.00
2017-08-23T09:17:16.675Z,92.00
2017-08-23T09:19:09.614Z,92.00
2017-08-23T09:20:09.605Z,92.00
2017-08-23T09:22:02.556Z,92.00
2017-08-23T09:23:02.551Z,92.00
2017-08-23T09:24:55.509Z,88.00
2017-08-23T09:25:55.495Z,92.00
2017-08-23T09:27:48.465Z,88.00
2017-08-23T09:28:48.456Z,88.00
2017-08-23T09:30:41.404Z,88.00
2017-08-23T09:31:41.389Z,88.00
2017-08-23T09:33:34.353Z,92.00
2017-08-23T09:36:27.308Z,92.00
2017-08-23T09:37:27.282Z,92.00
2017-08-23T09:39:20.238Z,92.00
2017-08-23T09:40:20.220Z,92.00
2017-08-23T09:42:13.172Z,92.00
2017-08-23T09:43:13.161Z,92.00
2017-08-23T09:45:06.109Z,92.00
2017-08-23T09:46:06.255Z,92.00
2017-08-23T09:47:59.120Z,92.00
2017-08-23T09:48:59.068Z,96.00
2017-08-23T09:50:52.024Z,96.00
2017-08-23T09:51:52.008Z,96.00
2017-08-23T09:53:45.485Z,96.00
2017-08-23T09:54:45.475Z,96.00
2017-08-23T09:56:38.445Z,96.00
2017-08-23T09:57:38.498Z,96.00
2017-08-23T09:59:31.883Z,96.00
2017-08-23T10:00:31.865Z,92.00
2017-08-23T10:02:25.329Z,92.00
2017-08-23T10:03:25.322Z,92.00
2017-08-23T10:05:18.284Z,92.00
2017-08-23T10:06:18.261Z,96.00
2017-08-23T10:08:11.257Z,92.00
2017-08-23T10:09:11.208Z,92.00
2017-08-23T10:11:04.202Z,92.00
2017-08-23T10:12:04.145Z,96.00
2017-08-23T10:13:57.103Z,96.00
2017-08-23T10:14:57.085Z,92.00
2017-08-23T10:16:50.567Z,92.00
2017-08-23T10:17:50.532Z,92.00
2017-08-23T10:19:44.040Z,96.00
2017-08-23T10:20:44.025Z,92.00
2017-08-23T10:22:37.473Z,96.00
2017-08-23T10:23:37.466Z,96.00
2017-08-23T10:25:30.914Z,92.00
2017-08-23T10:26:30.910Z,96.00
2017-08-23T10:28:23.861Z,92.00
2017-08-23T10:29:23.855Z,92.00
2017-08-23T10:31:17.293Z,92.00
2017-08-23T10:32:17.288Z,92.00
2017-08-23T10:34:10.846Z,92.00
2017-08-23T10:35:10.780Z,92.00
2017-08-23T10:37:03.773Z,92.00
2017-08-23T10:38:03.755Z,92.00
2017-08-23T10:39:56.750Z,92.00
2017-08-23T10:40:56.707Z,92.00
2017-08-23T10:42:49.664Z,92.00
2017-08-23T10:43:49.649Z,92.00
2017-08-23T10:45:43.100Z,92.00
2017-08-23T10:46:43.084Z,92.00
2017-08-23T10:48:36.061Z,96.00
2017-08-23T10:49:36.027Z,96.00
2017-08-23T10:51:28.992Z,92.00
2017-08-23T10:52:28.965Z,96.00
2017-08-23T10:54:22.442Z,96.00
2017-08-23T10:55:22.416Z,96.00
2017-08-23T10:57:15.881Z,92.00
2017-08-23T10:58:15.873Z,92.00
2017-08-23T11:00:10.735Z,96.00
2017-08-23T11:01:09.297Z,96.00
2017-08-23T11:02:09.319Z,96.00
2017-08-23T11:03:09.334Z,92.00
2017-08-23T11:04:09.364Z,96.00
2017-08-23T11:05:09.680Z,96.00
2017-08-23T11:06:09.408Z,92.00
2017-08-23T11:07:09.430Z,100.00
2017-08-23T11:08:09.459Z,96.00
2017-08-23T11:09:09.474Z,92.00
2017-08-23T11:11:09.810Z,96.00
2017-08-23T11:12:09.570Z,100.00
2017-08-23T11:13:09.572Z,96.00
2017-08-23T11:14:09.595Z,100.00
2017-08-23T11:15:09.619Z,100.00
2017-08-23T11:16:09.656Z,100.00
2017-08-23T11:17:09.966Z,104.00
2017-08-23T11:18:09.691Z,104.00
2017-08-23T11:19:09.712Z,104.00
2017-08-23T11:20:09.745Z,104.00
2017-08-23T11:21:09.759Z,104.00
2017-08-23T11:22:09.791Z,108.00
2017-08-23T11:23:09.818Z,108.00
2017-08-23T11:24:09.835Z,108.00
2017-08-23T11:25:09.951Z,108.00
2017-08-23T11:26:09.880Z,104.00
2017-08-23T11:27:09.907Z,88.00
2017-08-23T11:28:10.243Z,92.00
2017-08-23T11:29:09.951Z,100.00
2017-08-23T11:30:09.987Z,100.00
2017-08-23T11:31:09.990Z,96.00
2017-08-23T11:32:10.025Z,100.00
2017-08-23T11:33:10.038Z,104.00
2017-08-23T11:34:10.354Z,108.00
2017-08-23T11:35:10.097Z,112.00
2017-08-23T11:36:10.112Z,108.00
2017-08-23T11:37:10.138Z,108.00
2017-08-23T11:38:10.157Z,96.00
2017-08-23T11:39:10.199Z,80.00
2017-08-23T11:40:10.525Z,72.00
2017-08-23T11:41:10.224Z,92.00
2017-08-23T11:42:10.255Z,88.00
2017-08-23T11:43:10.282Z,92.00
2017-08-23T11:44:10.309Z,96.00
2017-08-23T11:45:10.318Z,92.00
2017-08-23T11:46:10.371Z,88.00
2017-08-23T11:47:11.265Z,96.00
2017-08-23T11:48:10.396Z,96.00
2017-08-23T11:49:10.423Z,96.00
2017-08-23T11:50:10.454Z,92.00
2017-08-23T11:51:10.763Z,92.00
2017-08-23T11:52:10.490Z,92.00
2017-08-23T11:53:10.507Z,88.00
2017-08-23T11:54:10.529Z,92.00
2017-08-23T11:55:10.562Z,96.00
2017-08-23T11:56:10.575Z,96.00
2017-08-23T11:57:10.616Z,96.00
2017-08-23T11:58:10.623Z,96.00
2017-08-23T11:59:10.652Z,96.00
2017-08-23T12:00:10.686Z,96.00
2017-08-23T12:01:10.718Z,88.00
2017-08-23T12:02:10.721Z,96.00
2017-08-23T12:03:10.743Z,92.00
2017-08-23T12:04:10.763Z,92.00
2017-08-23T12:05:11.387Z,92.00
2017-08-23T12:06:10.815Z,96.00
2017-08-23T12:07:10.891Z,96.00
2017-08-23T12:08:10.858Z,96.00
2017-08-23T12:09:11.174Z,92.00
2017-08-23T12:10:10.911Z,88.00
2017-08-23T12:11:10.953Z,96.00
2017-08-23T12:12:10.952Z,96.00
2017-08-23T12:13:10.979Z,96.00
2017-08-23T12:14:11.002Z,100.00
2017-08-23T12:15:11.022Z,96.00
2017-08-23T12:16:11.056Z,96.00
2017-08-23T12:17:11.066Z,92.00
2017-08-23T12:18:11.096Z,96.00
2017-08-23T12:19:11.131Z,92.00
2017-08-23T12:20:11.141Z,92.00
2017-08-23T12:21:11.483Z,92.00
2017-08-23T12:22:11.187Z,96.00
2017-08-23T12:23:11.228Z,96.00
2017-08-23T12:24:11.244Z,96.00
2017-08-23T12:25:11.257Z,96.00
2017-08-23T12:26:11.303Z,96.00
2017-08-23T12:27:11.305Z,96.00
2017-08-23T12:28:11.366Z,96.00
2017-08-23T12:29:11.372Z,96.00
2017-08-23T12:30:11.379Z,96.00
2017-08-23T12:31:11.406Z,96.00
2017-08-23T12:32:11.423Z,100.00
2017-08-23T12:33:11.737Z,96.00
2017-08-23T12:34:11.472Z,96.00
2017-08-23T12:35:11.494Z,96.00
2017-08-23T12:36:11.529Z,92.00
2017-08-23T12:38:11.582Z,100.00
2017-08-23T12:39:11.879Z,100.00
2017-08-23T12:40:11.629Z,104.00
2017-08-23T12:41:11.655Z,100.00
2017-08-23T12:42:11.658Z,104.00
2017-08-23T12:43:11.680Z,104.00
2017-08-23T12:44:11.719Z,108.00
2017-08-23T12:45:12.045Z,108.00
2017-08-23T12:46:11.753Z,104.00
2017-08-23T12:47:11.791Z,108.00
2017-08-23T12:48:11.813Z,104.00
2017-08-23T12:49:11.839Z,108.00
2017-08-23T12:50:11.849Z,96.00
2017-08-23T12:51:12.178Z,100.00
2017-08-23T12:52:11.891Z,92.00
2017-08-23T12:53:11.925Z,100.00
2017-08-23T12:54:11.938Z,108.00
2017-08-23T12:55:11.965Z,112.00
2017-08-23T12:56:11.987Z,116.00
2017-08-23T12:57:12.014Z,112.00
2017-08-23T12:58:12.043Z,116.00
2017-08-23T12:59:12.057Z,116.00
2017-08-23T13:00:12.092Z,112.00
2017-08-23T13:01:12.114Z,116.00
2017-08-23T13:02:12.129Z,116.00
2017-08-23T13:03:12.155Z,112.00
2017-08-23T13:04:12.174Z,116.00
2017-08-23T13:05:12.217Z,108.00
2017-08-23T13:06:12.241Z,112.00
2017-08-23T13:07:12.249Z,116.00
2017-08-23T13:08:12.275Z,120.00
2017-08-23T13:09:12.584Z,120.00
2017-08-23T13:10:12.316Z,128.00
2017-08-23T13:11:12.352Z,128.00
2017-08-23T13:12:12.378Z,124.00
2017-08-23T13:13:12.388Z,124.00
2017-08-23T13:14:12.415Z,124.00
2017-08-23T13:15:12.727Z,132.00
2017-08-23T13:16:12.459Z,132.00
2017-08-23T13:17:12.480Z,136.00
2017-08-23T13:18:12.519Z,124.00
2017-08-23T13:19:12.529Z,132.00
2017-08-23T13:20:12.557Z,132.00
2017-08-23T13:21:12.879Z,132.00
2017-08-23T13:22:12.627Z,132.00
2017-08-23T13:23:12.622Z,140.00
2017-08-23T13:24:12.850Z,140.00
2017-08-23T13:25:12.675Z,136.00
2017-08-23T13:26:12.695Z,144.00
2017-08-23T13:27:13.854Z,140.00
2017-08-23T13:28:12.812Z,140.00
2017-08-23T13:29:12.763Z,140.00
2017-08-23T13:30:12.794Z,136.00
2017-08-23T13:31:12.833Z,140.00
2017-08-23T13:32:12.853Z,140.00
2017-08-23T13:33:13.159Z,148.00
2017-08-23T13:34:12.885Z,152.00
2017-08-23T13:35:12.908Z,148.00
2017-08-23T13:36:12.940Z,156.00
2017-08-23T13:37:12.953Z,156.00
2017-08-23T13:38:12.978Z,156.00
2017-08-23T13:39:13.296Z,152.00
2017-08-23T13:40:13.044Z,156.00
2017-08-23T13:41:13.056Z,160.00
2017-08-23T13:42:13.076Z,160.00
2017-08-23T13:43:13.108Z,164.00
2017-08-23T13:44:13.120Z,160.00
2017-08-23T13:45:13.466Z,160.00
2017-08-23T13:46:13.167Z,156.00
2017-08-23T13:47:13.228Z,140.00
2017-08-23T13:48:13.233Z,152.00
2017-08-23T13:49:13.246Z,160.00
2017-08-23T13:50:13.267Z,156.00
2017-08-23T13:51:13.582Z,160.00
2017-08-23T13:52:13.318Z,156.00
2017-08-23T13:53:13.333Z,152.00
2017-08-23T13:54:13.362Z,152.00
2017-08-23T13:55:13.392Z,148.00
2017-08-23T13:56:13.406Z,140.00
2017-08-23T13:57:13.885Z,152.00
2017-08-23T13:58:13.455Z,164.00
2017-08-23T13:59:13.480Z,176.00
2017-08-23T14:00:13.510Z,180.00
2017-08-23T14:01:13.531Z,180.00
2017-08-23T14:02:13.559Z,180.00
2017-08-23T14:03:13.870Z,172.00
2017-08-23T14:04:13.599Z,164.00
2017-08-23T14:05:13.622Z,152.00
2017-08-23T14:06:13.655Z,172.00
2017-08-23T14:07:13.678Z,172.00
2017-08-23T14:08:13.695Z,176.00
2017-08-23T14:09:14.017Z,188.00
2017-08-23T14:10:13.740Z,196.00
2017-08-23T14:11:13.816Z,192.00
2017-08-23T14:12:13.806Z,196.00
2017-08-23T14:13:13.822Z,200.00
2017-08-23T14:14:13.837Z,204.00
2017-08-23T14:15:14.151Z,208.00
2017-08-23T14:16:13.996Z,208.00
2017-08-23T14:17:13.905Z,204.00
2017-08-23T14:18:13.933Z,188.00
2017-08-23T14:19:13.952Z,200.00
2017-08-23T14:20:13.977Z,180.00
2017-08-23T14:21:14.021Z,180.00
2017-08-23T14:22:14.036Z,188.00
2017-08-23T14:23:14.053Z,204.00
2017-08-23T14:24:14.085Z,200.00
2017-08-23T14:25:14.105Z,208.00
2017-08-23T14:26:14.409Z,204.00
2017-08-23T14:27:14.152Z,196.00
2017-08-23T14:28:14.168Z,196.00
2017-08-23T14:29:14.193Z,208.00
2017-08-23T14:30:14.878Z,204.00
2017-08-23T14:31:14.259Z,208.00
2017-08-23T14:32:14.558Z,204.00
2017-08-23T14:33:14.337Z,204.00
2017-08-23T14:34:14.323Z,196.00
2017-08-23T14:35:14.337Z,188.00
2017-08-23T14:36:14.359Z,176.00
2017-08-23T14:37:14.403Z,176.00
2017-08-23T14:38:14.704Z,180.00
2017-08-23T14:39:14.459Z,172.00
2017-08-23T14:40:14.461Z,180.00
2017-08-23T14:41:14.488Z,188.00
2017-08-23T14:42:14.504Z,188.00
2017-08-23T14:43:14.551Z,180.00
2017-08-23T14:44:14.837Z,188.00
2017-08-23T14:45:14.583Z,192.00
2017-08-23T14:47:14.636Z,192.00
2017-08-23T14:48:15.224Z,200.00
2017-08-23T14:49:14.695Z,196.00
2017-08-23T14:50:14.715Z,212.00
2017-08-23T14:51:14.723Z,204.00
2017-08-23T14:52:14.810Z,196.00
2017-08-23T14:53:14.770Z,200.00
2017-08-23T14:54:14.804Z,216.00
2017-08-23T14:55:14.818Z,224.00
2017-08-23T14:56:15.206Z,232.00
2017-08-23T14:57:14.864Z,228.00
2017-08-23T14:58:14.889Z,228.00
2017-08-23T14:59:14.918Z,232.00
2017-08-23T15:00:14.936Z,232.00
2017-08-23T15:01:15.020Z,232.00
2017-08-23T15:02:15.282Z,224.00
2017-08-23T15:03:15.009Z,224.00
2017-08-23T15:04:15.039Z,236.00
2017-08-23T15:05:15.055Z,260.00
2017-08-23T15:08:15.420Z,268.00
2017-08-23T15:09:15.159Z,260.00
2017-08-23T15:10:15.185Z,260.00
2017-08-23T15:11:15.236Z,244.00
2017-08-23T15:12:15.227Z,244.00
2017-08-23T15:13:15.254Z,248.00
2017-08-23T15:14:15.577Z,248.00
2017-08-23T15:15:15.301Z,252.00
2017-08-23T15:16:15.328Z,240.00
2017-08-23T15:17:15.346Z,232.00
2017-08-23T15:18:15.385Z,236.00
2017-08-23T15:19:15.522Z,240.00
2017-08-23T15:20:15.436Z,252.00
2017-08-23T15:21:15.444Z,228.00
2017-08-23T15:22:15.478Z,256.00
2017-08-23T15:23:15.517Z,272.00
2017-08-23T15:24:15.526Z,268.00
2017-08-23T15:25:15.543Z,260.00
2017-08-23T15:26:15.566Z,284.00
2017-08-23T15:27:15.594Z,280.00
2017-08-23T15:28:15.630Z,280.00
2017-08-23T15:29:15.643Z,280.00
2017-08-23T15:30:15.683Z,284.00
2017-08-23T15:31:15.693Z,288.00
2017-08-23T15:32:15.726Z,288.00
2017-08-23T15:33:15.737Z,292.00
2017-08-23T15:34:15.797Z,292.00
2017-08-23T15:35:15.785Z,292.00
2017-08-23T15:36:15.811Z,244.00
2017-08-23T15:37:15.842Z,272.00
2017-08-23T15:38:15.858Z,284.00
2017-08-23T15:39:15.893Z,256.00
2017-08-23T15:40:15.907Z,244.00
2017-08-23T15:41:15.936Z,200.00
2017-08-23T15:42:15.958Z,200.00
2017-08-23T15:43:15.983Z,236.00
2017-08-23T15:44:16.299Z,248.00
2017-08-23T15:45:16.033Z,248.00
2017-08-23T15:46:16.055Z,232.00
2017-08-23T15:47:16.081Z,228.00
2017-08-23T15:50:16.441Z,184.00
2017-08-23T15:51:16.185Z,148.00
2017-08-23T15:52:16.828Z,128.00
2017-08-23T15:53:16.244Z,124.00
2017-08-23T15:54:16.254Z,108.00
2017-08-23T15:55:16.281Z,100.00
2017-08-23T15:56:16.602Z,96.00
2017-08-23T15:57:16.326Z,88.00
2017-08-23T15:58:16.352Z,80.00
2017-08-23T15:59:16.401Z,76.00
2017-08-23T16:00:41.319Z,68.00
2017-08-23T16:01:16.433Z,64.00
2017-08-23T16:02:16.739Z,64.00
2017-08-23T16:03:16.474Z,64.00
2017-08-23T16:04:16.504Z,64.00
2017-08-23T16:05:16.523Z,68.00
2017-08-23T16:06:16.549Z,68.00
2017-08-23T16:07:16.573Z,68.00
2017-08-23T16:08:16.599Z,68.00
2017-08-23T16:09:16.622Z,68.00
2017-08-23T16:10:16.643Z,64.00
2017-08-23T16:11:16.669Z,72.00
2017-08-23T16:12:16.693Z,80.00
2017-08-23T16:13:17.098Z,80.00
2017-08-23T16:14:16.747Z,76.00
2017-08-23T16:15:16.785Z,68.00
2017-08-23T16:16:16.789Z,64.00
2017-08-23T16:17:16.821Z,68.00
2017-08-23T16:18:16.861Z,72.00
2017-08-23T16:20:16.890Z,64.00
2017-08-23T16:21:16.918Z,60.00
2017-08-23T16:22:16.977Z,60.00
2017-08-23T16:23:16.967Z,60.00
2017-08-23T16:24:17.008Z,60.00
2017-08-23T16:25:17.009Z,60.00
2017-08-23T16:26:17.295Z,56.00
2017-08-23T16:27:17.087Z,56.00
2017-08-23T16:28:17.906Z,56.00
2017-08-23T16:29:17.111Z,56.00
2017-08-23T16:31:17.171Z,52.00
2017-08-23T16:32:17.200Z,52.00
2017-08-23T16:33:17.209Z,48.00
2017-08-23T16:34:17.237Z,52.00
2017-08-23T16:35:17.265Z,48.00
2017-08-23T16:36:17.571Z,48.00
2017-08-23T16:37:17.303Z,44.00
2017-08-23T16:38:17.344Z,44.00
2017-08-23T16:39:17.374Z,44.00
2017-08-23T16:40:17.382Z,44.00
2017-08-23T16:41:17.402Z,44.00
2017-08-23T16:42:17.423Z,44.00
2017-08-23T16:43:17.456Z,44.00
2017-08-23T16:44:17.486Z,44.00
2017-08-23T16:45:17.515Z,40.00
2017-08-23T16:46:17.561Z,40.00
2017-08-23T16:47:17.545Z,40.00
2017-08-23T16:48:17.581Z,36.00
2017-08-23T16:49:17.608Z,40.00
2017-08-23T16:50:17.630Z,36.00
2017-08-23T16:51:17.665Z,36.00
2017-08-23T16:52:17.680Z,36.00
2017-08-23T16:53:17.691Z,36.00
2017-08-23T16:54:17.723Z,36.00
2017-08-23T16:55:17.742Z,36.00
2017-08-23T16:56:17.772Z,36.00
2017-08-23T16:58:17.817Z,40.00
2017-08-23T16:59:17.856Z,44.00
2017-08-23T17:00:18.166Z,44.00
2017-08-23T17:01:17.898Z,48.00
2017-08-23T17:02:17.915Z,56.00
2017-08-23T17:03:17.939Z,60.00
2017-08-23T17:04:17.960Z,60.00
2017-08-23T17:05:17.997Z,56.00
2017-08-23T17:06:18.304Z,52.00
2017-08-23T17:07:18.058Z,44.00
2017-08-23T17:08:18.214Z,40.00
2017-08-23T17:09:18.093Z,44.00
2017-08-23T17:10:18.133Z,60.00
2017-08-23T17:11:18.143Z,56.00
2017-08-23T17:12:18.155Z,48.00
2017-08-23T17:13:18.183Z,56.00
2017-08-23T17:14:18.206Z,44.00
2017-08-23T17:15:18.237Z,44.00
2017-08-23T17:16:18.256Z,44.00
2017-08-23T17:17:18.281Z,48.00
2017-08-23T17:18:18.305Z,48.00
2017-08-23T17:19:18.325Z,44.00
2017-08-23T17:20:18.357Z,44.00
2017-08-23T17:21:18.385Z,40.00
2017-08-23T17:22:18.429Z,148.00
2017-08-23T17:23:18.455Z,212.00
2017-08-23T17:24:18.773Z,216.00
2017-08-23T17:25:18.495Z,276.00
2017-08-23T17:26:18.503Z,388.00
2017-08-23T17:27:18.532Z,412.00
2017-08-23T17:28:18.553Z,412.00
2017-08-23T17:29:18.584Z,424.00
2017-08-23T17:30:18.596Z,392.00
2017-08-23T17:31:18.632Z,384.00
2017-08-23T17:33:18.673Z,364.00
2017-08-23T17:34:18.711Z,320.00
2017-08-23T17:35:18.726Z,284.00
2017-08-23T17:36:18.774Z,312.00
2017-08-23T17:37:18.778Z,296.00
2017-08-23T17:38:18.867Z,292.00
2017-08-23T17:39:18.826Z,288.00
2017-08-23T17:40:18.844Z,296.00
2017-08-23T17:41:18.890Z,288.00
2017-08-23T17:42:19.194Z,280.00
2017-08-23T17:43:18.938Z,276.00
2017-08-23T17:44:18.947Z,276.00
2017-08-23T17:45:19.039Z,272.00
2017-08-23T17:46:19.147Z,264.00
2017-08-23T17:47:19.055Z,252.00
2017-08-23T17:48:19.398Z,252.00
2017-08-23T17:49:19.075Z,248.00
2017-08-23T17:50:19.111Z,236.00
2017-08-23T17:51:19.135Z,228.00
2017-08-23T17:52:19.145Z,216.00
2017-08-23T17:53:19.177Z,204.00
2017-08-23T17:54:19.194Z,188.00
2017-08-23T17:55:19.227Z,176.00
2017-08-23T17:57:19.278Z,160.00
2017-08-23T17:58:19.286Z,152.00
2017-08-23T17:59:19.355Z,148.00
2017-08-23T18:00:19.346Z,140.00
2017-08-23T18:01:19.397Z,132.00
2017-08-23T18:02:19.384Z,124.00
2017-08-23T18:03:19.418Z,112.00
2017-08-23T18:04:19.432Z,104.00
2017-08-23T18:05:19.462Z,104.00
2017-08-23T18:06:19.491Z,104.00
2017-08-23T18:07:19.526Z,96.00
2017-08-23T18:08:19.529Z,92.00
2017-08-23T18:09:19.621Z,84.00
2017-08-23T18:10:19.594Z,76.00
2017-08-23T18:11:19.602Z,72.00
2017-08-23T18:12:19.972Z,72.00
2017-08-23T18:13:19.650Z,64.00
2017-08-23T18:14:19.694Z,60.00
2017-08-23T18:15:19.703Z,56.00
2017-08-23T18:16:19.739Z,52.00
2017-08-23T18:17:19.768Z,48.00
2017-08-23T18:18:19.790Z,44.00
2017-08-23T18:19:19.804Z,40.00
2017-08-23T18:20:19.822Z,40.00
2017-08-23T18:21:19.850Z,36.00
2017-08-23T18:22:19.876Z,32.00
2017-08-23T18:23:20.317Z,32.00
2017-08-23T18:24:19.931Z,28.00
2017-08-23T18:25:19.985Z,28.00
2017-08-23T18:26:19.977Z,24.00
2017-08-23T18:27:19.993Z,24.00
2017-08-23T18:28:20.020Z,20.00
2017-08-23T18:29:20.389Z,16.00
2017-08-23T18:30:20.075Z,16.00
2017-08-23T18:31:20.089Z,12.00
2017-08-23T18:32:21.076Z,12.00
2017-08-23T18:33:20.143Z,8.00
2017-08-23T18:34:20.164Z,8.00
2017-08-23T18:35:20.488Z,8.00
2017-08-23T18:36:20.262Z,8.00
2017-08-23T18:37:20.254Z,4.00
2017-08-23T18:38:20.261Z,8.00
2017-08-23T18:39:20.291Z,4.00
2017-08-23T18:40:20.306Z,4.00
2017-08-23T18:41:20.335Z,4.00
2017-08-23T18:43:20.411Z,4.00
2017-08-23T18:44:20.427Z,4.00
2017-08-23T18:45:20.432Z,4.00
2017-08-23T18:46:20.457Z,4.00
2017-08-23T18:47:20.766Z,0.00
2017-08-23T18:48:20.540Z,4.00
2017-08-23T18:49:20.527Z,0.00
2017-08-23T18:50:20.557Z,4.00
2017-08-23T18:51:20.594Z,0.00
2017-08-23T18:52:20.783Z,0.00
2017-08-23T18:53:20.932Z,0.00
2017-08-23T18:54:20.680Z,0.00
2017-08-23T18:55:20.715Z,0.00
2017-08-23T18:56:20.701Z,0.00
2017-08-23T18:57:20.726Z,0.00
2017-08-23T18:58:20.801Z,0.00
2017-08-23T18:59:20.776Z,0.00
2017-08-23T19:00:20.801Z,0.00
2017-08-23T19:01:20.869Z,0.00
2017-08-23T19:02:20.944Z,0.00
2017-08-23T19:03:20.927Z,0.00
2017-08-23T19:04:21.184Z,0.00
2017-08-23T19:05:20.951Z,0.00
2017-08-23T19:06:20.946Z,0.00
2017-08-23T19:07:21.528Z,0.00
2017-08-23T19:08:20.999Z,0.00
2017-08-23T19:09:21.010Z,0.00
2017-08-23T19:10:21.391Z,0.00
2017-08-23T19:11:21.077Z,0.00
2017-08-23T19:12:22.029Z,0.00
2017-08-23T19:13:21.110Z,0.00
2017-08-23T19:14:21.139Z,0.00
2017-08-23T19:15:21.164Z,0.00
2017-08-23T19:16:21.482Z,0.00
2017-08-23T19:17:21.216Z,0.00
2017-08-23T19:18:21.227Z,0.00
2017-08-23T19:19:21.275Z,0.00
2017-08-23T19:20:21.281Z,0.00
2017-08-23T19:21:21.305Z,0.00
2017-08-23T19:22:21.335Z,0.00
2017-08-23T19:23:21.358Z,0.00
2017-08-23T19:24:21.384Z,0.00
2017-08-23T19:25:21.405Z,0.00
2017-08-23T19:26:22.390Z,0.00
2017-08-23T19:27:21.462Z,0.00
2017-08-23T19:28:21.470Z,0.00
2017-08-23T19:29:21.532Z,0.00
2017-08-23T19:30:21.521Z,0.00
2017-08-23T19:31:21.549Z,0.00
2017-08-23T19:32:21.568Z,0.00
2017-08-23T19:33:21.590Z,0.00
2017-08-23T19:34:21.908Z,0.00
2017-08-23T19:35:21.645Z,0.00
2017-08-23T19:36:21.673Z,0.00
2017-08-23T19:37:21.710Z,0.00
2017-08-23T19:38:21.711Z,0.00
2017-08-23T19:39:21.744Z,0.00
2017-08-23T19:40:22.066Z,0.00
2017-08-23T19:41:21.799Z,0.00
2017-08-23T19:42:21.813Z,0.00
2017-08-23T19:43:21.845Z,0.00
2017-08-23T19:44:21.855Z,0.00
2017-08-23T19:45:21.878Z,0.00
2017-08-23T19:46:21.919Z,0.00
2017-08-23T19:47:21.929Z,0.00
2017-08-23T19:48:21.962Z,0.00
2017-08-23T19:49:21.978Z,0.00
2017-08-23T19:50:22.092Z,0.00
2017-08-23T19:51:22.027Z,0.00
2017-08-23T19:52:22.356Z,0.00
2017-08-23T19:53:22.072Z,0.00
2017-08-23T19:54:22.107Z,0.00
2017-08-23T19:55:22.133Z,0.00
2017-08-23T19:56:22.147Z,0.00
2017-08-23T19:57:22.188Z,0.00
2017-08-23T19:58:22.493Z,0.00
2017-08-23T19:59:22.219Z,0.00
2017-08-23T20:00:22.246Z,0.00
2017-08-23T20:01:22.268Z,0.00
2017-08-23T20:02:22.310Z,0.00
2017-08-23T20:03:22.360Z,0.00
2017-08-23T20:04:22.355Z,0.00
2017-08-23T20:05:22.368Z,0.00
2017-08-23T20:06:22.414Z,0.00
2017-08-23T20:07:22.413Z,0.00
2017-08-23T20:08:22.439Z,0.00
2017-08-23T20:09:22.471Z,0.00
2017-08-23T20:10:22.775Z,0.00
2017-08-23T20:11:22.508Z,0.00
2017-08-23T20:12:22.535Z,0.00
2017-08-23T20:13:22.555Z,0.00
2017-08-23T20:14:22.589Z,0.00
2017-08-23T20:15:22.602Z,0.00
2017-08-23T20:16:22.626Z,0.00
2017-08-23T20:17:22.649Z,0.00
2017-08-23T20:18:22.788Z,0.00
2017-08-23T20:19:22.711Z,0.00
2017-08-23T20:20:22.728Z,0.00
2017-08-23T20:21:23.049Z,0.00
2017-08-23T20:22:22.779Z,0.00
2017-08-23T20:23:22.795Z,0.00
2017-08-23T20:24:22.829Z,0.00
2017-08-23T20:25:22.841Z,0.00
2017-08-23T20:26:22.874Z,0.00
2017-08-23T20:27:23.180Z,0.00
2017-08-23T20:28:22.916Z,0.00
2017-08-23T20:29:22.939Z,0.00
2017-08-23T20:30:22.962Z,0.00
2017-08-23T20:31:22.991Z,0.00
2017-08-23T20:32:23.018Z,0.00
2017-08-23T20:33:23.342Z,0.00
2017-08-23T20:34:23.071Z,0.00
2017-08-23T20:35:23.089Z,0.00
2017-08-23T20:36:23.119Z,0.00
2017-08-23T20:37:23.130Z,0.00
2017-08-23T20:38:23.160Z,0.00
2017-08-23T20:39:23.582Z,0.00
2017-08-23T20:40:23.202Z,0.00
2017-08-23T20:41:23.232Z,0.00
2017-08-23T20:42:23.259Z,0.00
2017-08-23T20:43:23.273Z,0.00
2017-08-23T20:44:23.434Z,0.00
2017-08-23T20:45:23.626Z,0.00
2017-08-23T20:46:23.361Z,0.00
2017-08-23T20:47:23.380Z,0.00
2017-08-23T20:48:23.438Z,0.00
2017-08-23T20:49:23.435Z,0.00
2017-08-23T20:50:23.446Z,0.00
2017-08-23T20:51:23.780Z,0.00
2017-08-23T20:52:23.511Z,0.00
2017-08-23T20:53:23.520Z,0.00
2017-08-23T20:54:23.559Z,0.00
2017-08-23T20:55:23.564Z,0.00
2017-08-23T20:56:24.585Z,0.00
2017-08-23T20:57:23.929Z,0.00
2017-08-23T20:58:23.639Z,0.00
2017-08-23T20:59:23.658Z,0.00
2017-08-23T21:00:23.691Z,0.00
2017-08-23T21:01:23.735Z,0.00
2017-08-23T21:02:23.729Z,0.00
2017-08-23T21:03:23.760Z,0.00
2017-08-23T21:04:23.781Z,0.00
2017-08-23T21:05:23.808Z,0.00
2017-08-23T21:06:23.825Z,0.00
2017-08-23T21:07:23.853Z,0.00
2017-08-23T21:08:23.881Z,0.00
2017-08-23T21:09:24.971Z,0.00
2017-08-23T21:10:23.927Z,0.00
2017-08-23T21:11:23.944Z,0.00
2017-08-23T21:12:23.979Z,0.00
2017-08-23T21:13:23.995Z,0.00
2017-08-23T21:14:24.027Z,0.00
2017-08-23T21:15:24.046Z,0.00